Matson, Missouri
Current Conditions -  °F | °C
As of 6:54 AM on Wednesday 22 Oct 2014 (Local Time) from KSUS Reporting Station
Clear Clear  
Wind Chill: 37°   Ceiling: Unl
Heat Index: 37°   Visibility: 10mi
Dew Point: 36°   Wind: 0mph
Humidity: 96%   Direction: NA
Pressure: 30.29"   Gusts: NA
Location:  38.6484°N, 90.8208°W
Report Text: KSUS 221154Z 00000KT 10SM CLR 03/02 A3029 RMK AO2 SLP260 T00280022 10083 20028 51017
Loading
Personal Weather Stations






























Interactive Weather Map
Tropical Storm Tracking
New forecast layout! Learn more

10-Day Weather Forecast

Advertisements
Track Severe Weather on mobile